Time;durP1;ratioP1;P1;durP2;ratioP2;P2;SDS_P1;SDS_P2;PMS_P1;PMS_P2;Temp;Humidity;BMP_temperature;BMP_pressure;BME280_temperature;BME280_humidity;BME280_pressure;Samples;Min_cycle;Max_cycle;Signal;HPM_P1;HPM_P2
2023/06/17 00:00:07;;;;;;;1.13;1.13;;;12.90;1.00;;;;;;5034042;28;20429;-69
2023/06/17 00:02:35;;;;;;;1.55;1.45;;;12.90;1.00;;;;;;5032677;28;20425;-70
2023/06/17 00:05:02;;;;;;;2.30;1.50;;;12.80;1.00;;;;;;5030797;28;20451;-70
2023/06/17 00:07:31;;;;;;;1.40;1.30;;;12.70;1.00;;;;;;5031510;28;20441;-70
2023/06/17 00:09:58;;;;;;;1.80;1.50;;;12.70;99.90;;;;;;5033791;28;20432;-70
2023/06/17 00:12:25;;;;;;;1.40;1.30;;;12.70;99.90;;;;;;5030249;28;21550;-70
2023/06/17 00:14:53;;;;;;;1.33;1.25;;;12.80;1.00;;;;;;5030989;28;20551;-70
2023/06/17 00:17:21;;;;;;;1.58;1.25;;;12.80;1.00;;;;;;5030395;28;20533;-70
2023/06/17 00:19:50;;;;;;;1.55;1.42;;;12.80;1.00;;;;;;5030696;28;20429;-70
2023/06/17 00:22:20;;;;;;;1.02;1.02;;;12.70;1.00;;;;;;5030855;28;20483;-70
2023/06/17 00:24:46;;;;;;;2.27;1.27;;;12.70;99.90;;;;;;5030052;28;20530;-70
2023/06/17 00:27:15;;;;;;;2.67;2.05;;;12.60;99.90;;;;;;5029911;28;20870;-69
2023/06/17 00:29:42;;;;;;;1.48;1.38;;;12.60;63.10;;;;;;5030267;28;20434;-69
2023/06/17 00:32:09;;;;;;;4.65;1.42;;;12.60;99.90;;;;;;5030688;28;21001;-69
2023/06/17 00:34:36;;;;;;;1.27;1.17;;;12.70;99.90;;;;;;5029859;28;20433;-70
2023/06/17 00:37:03;;;;;;;1.77;1.67;;;12.70;5.00;;;;;;5031782;28;20437;-70
2023/06/17 00:39:29;;;;;;;1.45;1.45;;;12.70;99.90;;;;;;5032564;28;21020;-69
2023/06/17 00:42:00;;;;;;;1.27;1.20;;;12.70;1.00;;;;;;5031289;28;20512;-70
2023/06/17 00:44:26;;;;;;;1.00;1.00;;;12.60;99.90;;;;;;5032681;28;20734;-69
2023/06/17 00:46:54;;;;;;;1.35;1.27;;;12.50;13.00;;;;;;5031967;28;20795;-69
2023/06/17 00:49:29;;;;;;;1.98;1.80;;;12.40;1.00;;;;;;5031587;28;20455;-70
2023/06/17 00:51:59;;;;;;;1.05;1.05;;;12.40;99.90;;;;;;5031948;28;20491;-69
2023/06/17 00:54:46;;;;;;;2.00;1.35;;;12.30;1.00;;;;;;5032759;28;20587;-69
2023/06/17 00:57:16;;;;;;;1.50;1.13;;;12.30;1.00;;;;;;5033995;28;20445;-69
2023/06/17 00:59:45;;;;;;;1.33;1.23;;;12.20;99.90;;;;;;5034245;28;20448;-70
2023/06/17 01:02:15;;;;;;;3.08;1.20;;;12.20;1.00;;;;;;5038324;28;20465;-70
2023/06/17 01:04:43;;;;;;;1.25;1.10;;;12.20;99.90;;;;;;5034124;28;20882;-70
2023/06/17 01:07:26;;;;;;;3.73;2.03;;;12.30;99.90;;;;;;5036278;28;21910;-70
2023/06/17 01:09:59;;;;;;;1.45;1.35;;;12.40;99.90;;;;;;5064258;28;20459;-70
2023/06/17 01:12:28;;;;;;;2.10;1.90;;;12.50;99.90;;;;;;5035222;28;20937;-70
2023/06/17 01:14:57;;;;;;;1.48;1.38;;;12.60;1.00;;;;;;5033771;28;20433;-70
2023/06/17 01:17:26;;;;;;;1.52;1.25;;;12.70;36.30;;;;;;5033252;28;21245;-70
2023/06/17 01:19:56;;;;;;;0.90;0.90;;;12.80;99.90;;;;;;5038064;28;20441;-70
2023/06/17 01:22:27;;;;;;;1.10;1.10;;;12.90;1.00;;;;;;5042825;28;21097;-70
2023/06/17 01:24:56;;;;;;;1.67;1.37;;;12.80;1.00;;;;;;5033235;28;20473;-70
2023/06/17 01:27:23;;;;;;;1.90;1.67;;;12.60;23.60;;;;;;5034719;28;20823;-70
2023/06/17 01:29:50;;;;;;;1.63;1.52;;;12.40;1.00;;;;;;5036169;28;21066;-70
2023/06/17 01:32:19;;;;;;;2.22;1.67;;;12.20;99.90;;;;;;5033502;28;20474;-70
2023/06/17 01:34:59;;;;;;;1.60;1.10;;;12.10;1.00;;;;;;5033163;28;20777;-70
2023/06/17 01:37:45;;;;;;;1.33;1.10;;;11.90;99.90;;;;;;5033766;28;20433;-69
2023/06/17 01:40:13;;;;;;;1.30;1.30;;;11.80;99.90;;;;;;5035843;28;20429;-69
2023/06/17 01:42:49;;;;;;;1.63;1.38;;;11.80;33.00;;;;;;5033397;28;20447;-69
2023/06/17 01:45:18;;;;;;;1.63;1.43;;;11.70;99.90;;;;;;5034062;28;20517;-70
2023/06/17 01:47:46;;;;;;;1.42;1.33;;;11.70;1.00;;;;;;5034337;28;20975;-69
2023/06/17 01:50:18;;;;;;;1.70;1.48;;;11.60;85.50;;;;;;5030280;28;20437;-70
2023/06/17 01:52:46;;;;;;;1.38;1.20;;;11.60;99.90;;;;;;5035273;28;20437;-70
2023/06/17 01:55:13;;;;;;;1.85;1.75;;;11.60;1.00;;;;;;5034716;28;20469;-69
2023/06/17 01:57:40;;;;;;;2.03;1.77;;;11.60;54.40;;;;;;5066747;28;20500;-70
2023/06/17 02:00:12;;;;;;;1.70;1.60;;;11.50;99.90;;;;;;5033179;28;20812;-70
2023/06/17 02:02:40;;;;;;;1.80;1.40;;;11.40;99.90;;;;;;5033588;28;20870;-70
2023/06/17 02:05:08;;;;;;;1.90;1.33;;;11.50;1.00;;;;;;5034302;28;20437;-70
2023/06/17 02:07:35;;;;;;;1.30;1.20;;;11.50;72.40;;;;;;5033528;28;20920;-70
2023/06/17 02:10:03;;;;;;;1.55;1.40;;;11.50;99.90;;;;;;5033760;28;20479;-70
2023/06/17 02:12:32;;;;;;;1.15;1.15;;;11.60;99.90;;;;;;5037460;28;20429;-70
2023/06/17 02:14:59;;;;;;;0.93;0.93;;;11.60;99.90;;;;;;5031519;28;20520;-70
2023/06/17 02:17:35;;;;;;;2.45;1.35;;;11.60;99.90;;;;;;5036416;28;20441;-70
2023/06/17 02:20:06;;;;;;;1.33;1.33;;;11.70;99.90;;;;;;5032181;28;20453;-70
2023/06/17 02:22:33;;;;;;;1.40;1.30;;;11.80;99.90;;;;;;5035075;28;21380;-70
2023/06/17 02:25:00;;;;;;;2.75;1.52;;;12.00;99.90;;;;;;5033951;28;20530;-70
2023/06/17 02:27:27;;;;;;;1.50;1.40;;;12.10;99.90;;;;;;5035845;28;20520;-70
2023/06/17 02:29:54;;;;;;;1.97;1.33;;;12.20;99.90;;;;;;5033926;28;20433;-69
2023/06/17 02:32:21;;;;;;;1.60;1.40;;;12.20;99.90;;;;;;5033783;28;20571;-70
2023/06/17 02:34:48;;;;;;;1.63;1.52;;;12.10;99.90;;;;;;5034572;28;20428;-70
2023/06/17 02:37:15;;;;;;;1.33;1.23;;;11.90;99.90;;;;;;5031638;28;20433;-70
2023/06/17 02:39:42;;;;;;;1.63;1.55;;;11.70;99.90;;;;;;5033653;28;20469;-70
2023/06/17 02:42:12;;;;;;;1.48;1.38;;;11.60;99.90;;;;;;5034498;28;20429;-70
2023/06/17 02:44:39;;;;;;;1.50;1.40;;;11.50;99.90;;;;;;5031836;28;20437;-69
2023/06/17 02:47:07;;;;;;;1.60;1.50;;;11.40;99.90;;;;;;5033310;28;20429;-69
2023/06/17 02:49:33;;;;;;;2.67;1.65;;;11.30;99.90;;;;;;5033212;28;20596;-69
2023/06/17 02:52:00;;;;;;;1.95;1.75;;;11.20;99.90;;;;;;5033121;28;20483;-70
2023/06/17 02:54:27;;;;;;;1.75;1.55;;;11.10;99.90;;;;;;5034084;28;20474;-70
2023/06/17 02:56:55;;;;;;;1.92;1.73;;;11.10;99.90;;;;;;5033328;28;20922;-70
2023/06/17 02:59:22;;;;;;;2.13;1.48;;;11.00;99.90;;;;;;5031567;28;20492;-69
2023/06/17 03:01:49;;;;;;;1.25;1.15;;;10.90;99.90;;;;;;5034340;28;20494;-70
2023/06/17 03:04:20;;;;;;;1.60;1.27;;;10.90;99.90;;;;;;5029482;28;20535;-69
2023/06/17 03:06:50;;;;;;;3.20;1.35;;;10.80;99.90;;;;;;5032665;28;20854;-70
2023/06/17 03:09:18;;;;;;;2.10;1.20;;;10.80;99.90;;;;;;5032869;28;20528;-70
2023/06/17 03:11:45;;;;;;;2.67;2.08;;;10.70;99.90;;;;;;5070508;28;20437;-70
2023/06/17 03:14:12;;;;;;;1.88;1.50;;;10.80;99.90;;;;;;5027546;28;20926;-70
2023/06/17 03:16:40;;;;;;;2.50;1.30;;;10.80;99.90;;;;;;5029914;28;20487;-70
2023/06/17 03:19:07;;;;;;;1.50;1.48;;;10.90;99.90;;;;;;5029672;28;20548;-70
2023/06/17 03:21:39;;;;;;;4.95;1.98;;;10.90;99.90;;;;;;5030402;28;20510;-70
2023/06/17 03:24:06;;;;;;;4.30;1.48;;;10.80;99.90;;;;;;5031214;28;20441;-70
2023/06/17 03:26:33;;;;;;;1.40;1.30;;;10.80;99.90;;;;;;5031908;28;20455;-70
2023/06/17 03:28:59;;;;;;;2.22;1.45;;;10.80;99.90;;;;;;5030228;28;20436;-70
2023/06/17 03:31:28;;;;;;;1.27;1.17;;;10.80;99.90;;;;;;5032180;28;20437;-70
2023/06/17 03:33:54;;;;;;;1.30;1.00;;;10.90;99.90;;;;;;5031834;28;20440;-70
2023/06/17 03:36:28;;;;;;;8.25;1.58;;;10.90;99.90;;;;;;5029371;28;20540;-70
2023/06/17 03:38:56;;;;;;;1.37;1.23;;;10.90;99.90;;;;;;5029669;28;20440;-71
2023/06/17 03:41:24;;;;;;;2.03;1.42;;;11.00;99.90;;;;;;5030894;28;20430;-71
2023/06/17 03:43:51;;;;;;;1.77;1.35;;;11.00;99.90;;;;;;5030391;28;20430;-71
2023/06/17 03:46:18;;;;;;;1.48;1.38;;;11.00;99.90;;;;;;5031449;28;20429;-71
2023/06/17 03:48:46;;;;;;;2.07;1.70;;;11.00;99.90;;;;;;5030920;28;20429;-71
2023/06/17 03:51:12;;;;;;;2.22;1.42;;;11.10;99.90;;;;;;5031372;28;20437;-71
2023/06/17 03:53:42;;;;;;;3.15;1.50;;;11.10;99.90;;;;;;5029589;28;20534;-71
2023/06/17 03:56:13;;;;;;;1.67;1.58;;;11.20;99.90;;;;;;5029430;28;20460;-71
2023/06/17 03:58:40;;;;;;;1.90;1.42;;;11.30;99.90;;;;;;5030447;28;21242;-72
2023/06/17 04:01:07;;;;;;;1.98;1.77;;;11.50;99.90;;;;;;5059998;28;20513;-71
2023/06/17 04:03:34;;;;;;;1.75;1.17;;;11.50;99.90;;;;;;5032722;28;20437;-71
2023/06/17 04:06:01;;;;;;;1.60;1.50;;;11.60;99.90;;;;;;5031213;28;20442;-71
2023/06/17 04:08:28;;;;;;;2.15;1.42;;;11.80;99.90;;;;;;5031019;28;20495;-71
2023/06/17 04:10:58;;;;;;;0.90;0.90;;;11.80;99.90;;;;;;5036111;28;20528;-71
2023/06/17 04:13:25;;;;;;;1.13;1.13;;;11.90;99.90;;;;;;5044999;28;20574;-71
2023/06/17 04:15:52;;;;;;;1.40;1.20;;;12.10;99.90;;;;;;5031816;28;20472;-71
2023/06/17 04:18:19;;;;;;;1.40;1.30;;;12.20;99.90;;;;;;5033155;28;20976;-71
2023/06/17 04:20:46;;;;;;;1.80;1.10;;;12.30;99.90;;;;;;5031189;28;20442;-71
2023/06/17 04:23:13;;;;;;;2.28;1.17;;;12.40;99.90;;;;;;5032064;28;20959;-71
2023/06/17 04:25:40;;;;;;;1.52;1.17;;;12.60;99.90;;;;;;5030724;28;20456;-71
2023/06/17 04:28:08;;;;;;;0.68;0.68;;;12.70;99.90;;;;;;5035046;28;20844;-72
2023/06/17 04:30:37;;;;;;;1.38;1.27;;;13.00;99.90;;;;;;5033093;28;20529;-71
2023/06/17 04:33:04;;;;;;;1.35;1.25;;;13.30;99.90;;;;;;5036620;28;20441;-71
2023/06/17 04:35:31;;;;;;;1.40;0.93;;;13.60;99.90;;;;;;5036031;28;20432;-70
2023/06/17 04:37:58;;;;;;;1.10;1.10;;;13.80;99.90;;;;;;5038521;28;20502;-70
2023/06/17 04:40:25;;;;;;;1.45;1.38;;;14.10;99.90;;;;;;5036665;28;20429;-70
2023/06/17 04:42:52;;;;;;;2.15;1.30;;;14.40;99.90;;;;;;5039210;28;20459;-70
2023/06/17 04:45:19;;;;;;;1.50;1.08;;;15.10;99.90;;;;;;5036056;28;20552;-70
2023/06/17 04:47:48;;;;;;;1.48;1.38;;;16.40;1.00;;;;;;5034437;28;20520;-70
2023/06/17 04:50:17;;;;;;;1.42;1.33;;;16.60;99.90;;;;;;5037586;28;20432;-71
2023/06/17 04:52:50;;;;;;;1.47;1.40;;;17.30;99.90;;;;;;5036487;28;20469;-70
2023/06/17 04:55:21;;;;;;;2.30;1.70;;;18.00;99.90;;;;;;5037838;28;20444;-70
2023/06/17 04:57:48;;;;;;;1.60;1.50;;;18.40;99.90;;;;;;5038640;28;22777;-71
2023/06/17 05:00:16;;;;;;;1.45;1.35;;;18.70;99.90;;;;;;5039623;28;20435;-70
2023/06/17 05:02:46;;;;;;;1.77;1.38;;;19.20;99.90;;;;;;5038201;28;20439;-69
2023/06/17 05:05:13;;;;;;;1.92;1.63;;;19.40;99.90;;;;;;5039156;28;20432;-69
2023/06/17 05:07:39;;;;;;;1.83;1.65;;;19.50;99.90;;;;;;5036915;28;20909;-69
2023/06/17 05:10:07;;;;;;;1.33;1.25;;;19.70;99.90;;;;;;5038372;28;20441;-70
2023/06/17 05:12:33;;;;;;;1.83;1.40;;;20.20;99.90;;;;;;5044167;28;20432;-70
2023/06/17 05:15:01;;;;;;;1.55;1.45;;;20.50;99.90;;;;;;5037788;28;20777;-70
2023/06/17 05:17:27;;;;;;;1.30;1.20;;;20.80;99.90;;;;;;5036535;28;20462;-70
2023/06/17 05:19:57;;;;;;;1.63;1.58;;;21.20;99.90;;;;;;5038952;28;20436;-70
2023/06/17 05:22:23;;;;;;;1.85;1.75;;;21.60;99.90;;;;;;5039116;28;20568;-70
2023/06/17 05:24:53;;;;;;;1.80;1.70;;;22.00;99.90;;;;;;5037806;28;20455;-70
2023/06/17 05:27:20;;;;;;;2.67;1.70;;;22.70;99.90;;;;;;5036928;28;20433;-70
2023/06/17 05:29:47;;;;;;;1.70;1.50;;;23.20;99.10;;;;;;5038435;28;20435;-70
2023/06/17 05:32:14;;;;;;;2.60;2.40;;;23.30;99.90;;;;;;5039787;28;20903;-70
2023/06/17 05:34:41;;;;;;;1.83;1.73;;;23.20;98.60;;;;;;5040340;28;20465;-71
2023/06/17 05:37:08;;;;;;;1.45;1.35;;;23.40;98.10;;;;;;5038096;28;20461;-71
2023/06/17 05:39:34;;;;;;;1.63;1.50;;;23.60;98.10;;;;;;5038866;28;20970;-71
2023/06/17 05:42:01;;;;;;;1.98;1.80;;;23.70;97.40;;;;;;5037382;28;20435;-71
2023/06/17 05:44:28;;;;;;;1.95;1.83;;;24.10;97.40;;;;;;5032590;28;20435;-70
2023/06/17 05:46:55;;;;;;;3.30;1.90;;;24.30;97.00;;;;;;5035280;28;20477;-70
2023/06/17 05:49:23;;;;;;;2.30;1.70;;;24.30;95.50;;;;;;5034080;28;20525;-71
2023/06/17 05:51:50;;;;;;;1.92;1.65;;;24.40;94.90;;;;;;5038624;28;20433;-71
2023/06/17 05:54:17;;;;;;;1.55;1.45;;;24.30;93.20;;;;;;5032789;28;20441;-71
2023/06/17 05:56:44;;;;;;;2.65;1.60;;;24.40;89.50;;;;;;5033231;28;20429;-71
2023/06/17 05:59:10;;;;;;;1.67;1.57;;;24.50;88.40;;;;;;5029488;28;20530;-71
2023/06/17 06:01:37;;;;;;;1.92;1.83;;;24.70;88.90;;;;;;5037152;28;20492;-71
2023/06/17 06:04:04;;;;;;;1.98;1.77;;;25.30;91.00;;;;;;5032615;28;20739;-71
2023/06/17 06:06:31;;;;;;;1.60;1.50;;;25.80;90.70;;;;;;5033362;28;20433;-71
2023/06/17 06:09:00;;;;;;;2.17;1.85;;;26.00;90.60;;;;;;5037250;28;21089;-71
2023/06/17 06:11:27;;;;;;;1.98;1.80;;;26.10;84.60;;;;;;5039344;28;20808;-71
2023/06/17 06:13:54;;;;;;;2.73;2.20;;;26.40;84.30;;;;;;5035419;28;20442;-70
2023/06/17 06:16:20;;;;;;;1.92;1.80;;;26.80;87.60;;;;;;5034856;28;20437;-70
2023/06/17 06:18:47;;;;;;;2.30;2.20;;;27.10;87.00;;;;;;5032742;28;20438;-70
2023/06/17 06:21:14;;;;;;;1.92;1.80;;;27.20;85.80;;;;;;5033147;28;20500;-70
2023/06/17 06:23:41;;;;;;;1.77;1.67;;;27.20;84.10;;;;;;5031144;28;20431;-70
2023/06/17 06:26:08;;;;;;;2.33;1.95;;;27.40;84.20;;;;;;5034925;28;20972;-71
2023/06/17 06:28:34;;;;;;;2.05;1.95;;;27.30;83.40;;;;;;5034652;28;20444;-70
2023/06/17 06:31:02;;;;;;;2.33;2.20;;;27.00;81.00;;;;;;5036940;28;20461;-71
2023/06/17 06:33:28;;;;;;;2.10;1.90;;;26.90;80.40;;;;;;5033128;28;20499;-70
2023/06/17 06:35:55;;;;;;;2.17;2.08;;;27.00;79.00;;;;;;5033736;28;20441;-70
2023/06/17 06:38:22;;;;;;;2.20;2.00;;;26.90;77.40;;;;;;5033779;28;20504;-70
2023/06/17 06:40:49;;;;;;;3.17;1.63;;;26.90;78.40;;;;;;5035993;28;20815;-70
2023/06/17 06:43:15;;;;;;;2.03;1.88;;;27.30;80.50;;;;;;5033254;28;20515;-71
2023/06/17 06:45:42;;;;;;;2.50;2.17;;;27.50;81.30;;;;;;5030702;28;20429;-71
2023/06/17 06:48:09;;;;;;;2.45;2.25;;;28.10;82.50;;;;;;5034679;28;20433;-71
2023/06/17 06:50:36;;;;;;;2.10;1.90;;;28.60;84.50;;;;;;5032582;28;20509;-71
2023/06/17 06:53:04;;;;;;;1.98;1.88;;;28.70;83.90;;;;;;5031803;28;20433;-71
2023/06/17 06:55:30;;;;;;;2.00;1.90;;;28.30;80.60;;;;;;5033089;28;20433;-71
2023/06/17 06:57:57;;;;;;;3.57;1.93;;;28.60;82.10;;;;;;5032190;28;20433;-71
2023/06/17 07:00:24;;;;;;;2.25;1.83;;;28.60;81.30;;;;;;5027792;28;20795;-71
2023/06/17 07:02:51;;;;;;;2.13;2.03;;;28.70;81.70;;;;;;5033851;28;20887;-71
2023/06/17 07:05:22;;;;;;;2.53;2.33;;;28.50;80.30;;;;;;5030695;28;20435;-71
2023/06/17 07:07:49;;;;;;;2.47;1.77;;;28.30;77.40;;;;;;5031143;28;20672;-71
2023/06/17 07:10:16;;;;;;;1.80;1.67;;;28.60;78.80;;;;;;5036154;28;20457;-71
2023/06/17 07:12:45;;;;;;;1.92;1.83;;;28.70;78.60;;;;;;5037507;28;20461;-71
2023/06/17 07:15:12;;;;;;;1.88;1.77;;;28.80;77.70;;;;;;5031804;28;20439;-71
2023/06/17 07:17:39;;;;;;;1.77;1.67;;;28.80;76.70;;;;;;5031215;28;20463;-72
2023/06/17 07:20:07;;;;;;;2.22;2.03;;;29.00;78.00;;;;;;5031164;28;20429;-72
2023/06/17 07:22:33;;;;;;;2.27;2.10;;;29.00;78.30;;;;;;5035985;28;20441;-70
2023/06/17 07:25:02;;;;;;;2.13;2.03;;;28.80;77.80;;;;;;5034387;28;20888;-71
2023/06/17 07:27:36;;;;;;;2.00;1.85;;;28.80;77.00;;;;;;5030905;28;20432;-72
2023/06/17 07:30:04;;;;;;;2.45;2.15;;;29.10;78.30;;;;;;5031490;28;20417;-69
2023/06/17 07:32:31;;;;;;;2.03;1.90;;;29.10;78.50;;;;;;5033628;28;20437;-70
2023/06/17 07:35:00;;;;;;;2.45;2.20;;;29.50;80.10;;;;;;5031976;28;22119;-70
2023/06/17 07:37:27;;;;;;;2.22;2.03;;;30.20;82.10;;;;;;5032230;28;20469;-72
2023/06/17 07:39:56;;;;;;;1.98;1.83;;;30.10;82.10;;;;;;5035025;28;20516;-72
2023/06/17 07:42:23;;;;;;;1.85;1.75;;;30.10;82.90;;;;;;5033588;28;20961;-72
2023/06/17 07:44:50;;;;;;;1.90;1.80;;;29.90;81.50;;;;;;5033275;28;20447;-71
2023/06/17 07:47:17;;;;;;;2.28;2.17;;;29.50;78.70;;;;;;5031591;28;20961;-72
2023/06/17 07:49:44;;;;;;;2.20;2.10;;;29.30;77.70;;;;;;5030605;28;20802;-72
2023/06/17 07:52:11;;;;;;;1.83;1.73;;;29.40;77.20;;;;;;5031190;28;20429;-71
2023/06/17 07:54:39;;;;;;;1.75;1.65;;;29.60;78.40;;;;;;5033708;28;20443;-71
2023/06/17 07:57:08;;;;;;;2.10;1.90;;;30.00;80.30;;;;;;5032771;28;20532;-71
2023/06/17 07:59:35;;;;;;;1.80;1.70;;;30.50;84.60;;;;;;5030123;28;20425;-71
2023/06/17 08:02:02;;;;;;;1.65;1.55;;;30.50;83.80;;;;;;5032011;28;20921;-71
2023/06/17 08:04:29;;;;;;;2.15;1.98;;;30.50;83.00;;;;;;5029349;28;20429;-71
2023/06/17 08:06:56;;;;;;;2.13;2.00;;;30.60;83.90;;;;;;5061517;28;20431;-71
2023/06/17 08:09:22;;;;;;;1.70;1.63;;;30.80;83.40;;;;;;5033162;28;20497;-71
2023/06/17 08:11:49;;;;;;;1.85;1.75;;;31.10;85.20;;;;;;5037409;28;20884;-71
2023/06/17 08:14:16;;;;;;;1.83;1.73;;;31.30;86.40;;;;;;5033416;28;20524;-71
2023/06/17 08:16:43;;;;;;;1.80;1.70;;;31.70;87.00;;;;;;5033188;28;20425;-71
2023/06/17 08:19:14;;;;;;;1.85;1.75;;;31.60;85.60;;;;;;5030992;28;21591;-71
2023/06/17 08:21:47;;;;;;;1.98;1.88;;;31.10;84.40;;;;;;5031512;28;20472;-72
2023/06/17 08:24:21;;;;;;;1.73;1.63;;;31.00;83.60;;;;;;5061443;28;20971;-71
2023/06/17 08:26:49;;;;;;;2.33;1.50;;;31.30;85.40;;;;;;5034136;28;20429;-71
2023/06/17 08:29:17;;;;;;;1.88;1.40;;;31.10;83.30;;;;;;5030931;28;20937;-71
2023/06/17 08:31:50;;;;;;;2.70;1.77;;;31.00;82.80;;;;;;5032493;28;20532;-72
2023/06/17 08:34:17;;;;;;;1.50;1.40;;;30.90;83.30;;;;;;5032040;28;20482;-70
2023/06/17 08:36:46;;;;;;;1.58;1.50;;;31.10;82.00;;;;;;5033541;28;20440;-72
2023/06/17 08:39:16;;;;;;;2.17;1.40;;;31.50;85.60;;;;;;5030491;28;20443;-71
2023/06/17 08:41:43;;;;;;;4.00;1.58;;;32.10;88.10;;;;;;5035355;28;20911;-71
2023/06/17 08:44:11;;;;;;;7.28;2.00;;;32.10;87.30;;;;;;5064004;28;20790;-71
2023/06/17 08:46:46;;;;;;;2.15;1.90;;;31.80;86.90;;;;;;5033261;28;20536;-71
2023/06/17 08:49:13;;;;;;;2.40;1.80;;;31.30;83.40;;;;;;5030362;28;20540;-70
2023/06/17 08:51:43;;;;;;;2.03;1.93;;;31.40;84.10;;;;;;5032726;28;20428;-70
2023/06/17 08:54:10;;;;;;;1.57;1.47;;;31.40;82.30;;;;;;5028047;28;20439;-71
2023/06/17 08:56:44;;;;;;;2.17;1.90;;;31.30;82.20;;;;;;5032936;28;21274;-71
2023/06/17 08:59:11;;;;;;;1.55;1.45;;;31.10;82.40;;;;;;5030818;28;20512;-71
2023/06/17 09:01:39;;;;;;;1.98;1.88;;;31.00;79.80;;;;;;5029905;28;20425;-71
2023/06/17 09:04:09;;;;;;;2.88;1.58;;;30.40;77.30;;;;;;5060416;28;20431;-70
2023/06/17 09:06:36;;;;;;;1.70;1.60;;;30.40;76.50;;;;;;5025511;28;21057;-73
2023/06/17 09:09:05;;;;;;;1.77;1.67;;;30.80;78.80;;;;;;5031676;28;20726;-73
2023/06/17 09:11:32;;;;;;;3.60;1.30;;;30.60;77.30;;;;;;5038122;28;20433;-73
2023/06/17 09:14:01;;;;;;;1.30;1.30;;;30.60;76.10;;;;;;5060602;28;20433;-71
2023/06/17 09:16:28;;;;;;;1.50;1.40;;;30.50;75.40;;;;;;5032724;28;20429;-72
2023/06/17 09:18:57;;;;;;;1.33;1.23;;;31.00;77.80;;;;;;5032761;28;20758;-72
2023/06/17 09:21:25;;;;;;;1.42;1.33;;;30.60;77.10;;;;;;5035203;28;20911;-73
2023/06/17 09:23:57;;;;;;;1.98;1.63;;;30.80;78.50;;;;;;5034130;28;20421;-73
2023/06/17 09:26:34;;;;;;;1.33;1.30;;;30.70;76.30;;;;;;5038751;28;20912;-73
2023/06/17 09:29:06;;;;;;;1.60;1.50;;;30.60;76.60;;;;;;5035237;28;20460;-73
2023/06/17 09:31:45;;;;;;;1.67;1.57;;;30.20;73.30;;;;;;5037920;28;20988;-73
2023/06/17 09:34:14;;;;;;;1.98;1.38;;;30.00;71.40;;;;;;5034741;28;20432;-74
2023/06/17 09:36:42;;;;;;;1.65;1.55;;;30.50;73.30;;;;;;5038903;28;20424;-74
2023/06/17 09:39:10;;;;;;;1.45;1.35;;;30.70;74.90;;;;;;5035870;28;20433;-74
2023/06/17 09:41:39;;;;;;;1.70;1.60;;;31.30;77.40;;;;;;5068728;28;20937;-73
2023/06/17 09:44:07;;;;;;;1.27;1.27;;;31.70;78.50;;;;;;5033831;28;20967;-74
2023/06/17 09:46:36;;;;;;;1.63;1.55;;;32.10;82.30;;;;;;5034170;28;20435;-73
2023/06/17 09:49:12;;;;;;;1.67;1.50;;;32.00;81.70;;;;;;5033643;28;20528;-73
2023/06/17 09:51:39;;;;;;;2.72;1.45;;;31.70;79.60;;;;;;5033210;28;20434;-73
2023/06/17 09:54:07;;;;;;;1.55;1.45;;;31.70;79.50;;;;;;5035580;28;20516;-74
2023/06/17 09:56:35;;;;;;;1.27;1.17;;;32.00;82.30;;;;;;5034960;28;20433;-73
2023/06/17 09:59:03;;;;;;;1.63;1.52;;;31.70;79.80;;;;;;5032986;28;20440;-73
2023/06/17 10:01:31;;;;;;;1.63;1.52;;;32.10;82.10;;;;;;5034824;28;20882;-73
2023/06/17 10:04:01;;;;;;;2.45;1.70;;;32.40;83.30;;;;;;5033220;28;20436;-73
2023/06/17 10:06:31;;;;;;;1.60;1.50;;;32.50;82.40;;;;;;5034314;28;20990;-73
2023/06/17 10:09:06;;;;;;;1.40;1.40;;;32.70;84.10;;;;;;5036141;28;20514;-73
2023/06/17 10:11:34;;;;;;;2.55;1.40;;;32.90;85.10;;;;;;5039780;28;20434;-72
2023/06/17 10:14:10;;;;;;;1.50;1.40;;;32.90;83.50;;;;;;5032669;28;20425;-73
2023/06/17 10:16:41;;;;;;;1.42;1.42;;;32.70;82.60;;;;;;5032030;28;20464;-73
2023/06/17 10:19:15;;;;;;;1.52;1.52;;;32.50;82.50;;;;;;5033922;28;20437;-72
2023/06/17 10:21:46;;;;;;;1.77;1.30;;;32.90;84.50;;;;;;5036251;28;20469;-73
2023/06/17 10:24:15;;;;;;;2.03;1.50;;;33.00;84.50;;;;;;5033303;28;20829;-71
2023/06/17 10:26:42;;;;;;;1.70;1.60;;;33.00;85.20;;;;;;5033784;28;20432;-74
2023/06/17 10:29:12;;;;;;;1.50;1.40;;;33.00;84.30;;;;;;5033525;28;20693;-73
2023/06/17 10:31:40;;;;;;;1.30;1.30;;;32.50;82.00;;;;;;5035730;28;20417;-74
2023/06/17 10:34:36;;;;;;;1.42;1.38;;;32.50;81.60;;;;;;5034824;28;21015;-72
2023/06/17 10:37:03;;;;;;;1.60;1.50;;;33.00;85.70;;;;;;5015065;28;20860;-74
2023/06/17 10:39:30;;;;;;;1.58;1.48;;;33.50;86.50;;;;;;5015712;28;20486;-74
2023/06/17 10:42:02;;;;;;;1.50;1.40;;;33.90;88.20;;;;;;5016584;28;20945;-72
2023/06/17 10:44:33;;;;;;;1.48;1.40;;;33.70;87.70;;;;;;5014064;28;20451;-72
2023/06/17 10:47:15;;;;;;;1.27;1.27;;;33.20;84.90;;;;;;5016437;28;20457;-73
2023/06/17 10:49:42;;;;;;;1.30;1.30;;;33.00;83.60;;;;;;5017237;28;20439;-73
2023/06/17 10:52:15;;;;;;;1.63;1.52;;;32.70;80.80;;;;;;5015420;28;20435;-73
2023/06/17 10:54:49;;;;;;;1.40;1.23;;;32.50;80.40;;;;;;5015531;28;21084;-73
2023/06/17 10:57:34;;;;;;;1.65;1.55;;;33.00;82.70;;;;;;5016343;28;20911;-73
2023/06/17 11:00:11;;;;;;;3.50;1.30;;;33.50;86.70;;;;;;5014717;28;20841;-73
2023/06/17 11:02:39;;;;;;;1.33;1.23;;;33.80;88.00;;;;;;5001299;28;20443;-73
2023/06/17 11:05:09;;;;;;;1.48;1.40;;;33.50;85.80;;;;;;5017891;28;20427;-73
2023/06/17 11:07:36;;;;;;;1.40;1.40;;;33.90;89.20;;;;;;5016503;28;20436;-74
2023/06/17 11:10:04;;;;;;;1.42;1.33;;;33.60;87.70;;;;;;5015878;28;20435;-72
2023/06/17 11:12:34;;;;;;;1.20;1.20;;;33.30;85.20;;;;;;5020914;28;20437;-72
2023/06/17 11:15:03;;;;;;;1.30;1.30;;;32.60;81.30;;;;;;5036071;28;20484;-73
2023/06/17 11:17:30;;;;;;;1.17;1.05;;;31.50;75.60;;;;;;5036273;28;20440;-72
2023/06/17 11:19:57;;;;;;;1.48;1.42;;;30.40;69.30;;;;;;5035339;28;20537;-72
2023/06/17 11:22:23;;;;;;;1.50;1.40;;;30.70;70.70;;;;;;5037098;28;20628;-72
2023/06/17 11:24:55;;;;;;;2.03;1.27;;;31.50;74.90;;;;;;5033556;28;20447;-73
2023/06/17 11:27:27;;;;;;;1.10;1.10;;;31.40;74.20;;;;;;5034818;28;20808;-73
2023/06/17 11:29:54;;;;;;;1.27;1.23;;;32.40;78.80;;;;;;5032344;28;20439;-72
2023/06/17 11:32:21;;;;;;;1.00;1.00;;;32.80;82.60;;;;;;5064886;28;20531;-72
2023/06/17 11:34:51;;;;;;;1.50;1.40;;;33.10;83.60;;;;;;5033960;28;20436;-73
2023/06/17 11:37:18;;;;;;;1.80;1.35;;;32.80;80.70;;;;;;5038805;28;20441;-74
2023/06/17 11:39:47;;;;;;;1.47;1.40;;;32.70;81.10;;;;;;5033999;28;20436;-72
2023/06/17 11:42:16;;;;;;;1.67;1.58;;;32.60;80.40;;;;;;5031343;28;20493;-72
2023/06/17 11:44:43;;;;;;;2.88;1.38;;;32.70;80.60;;;;;;5033278;28;20781;-72
2023/06/17 11:47:13;;;;;;;2.90;1.20;;;32.70;81.70;;;;;;5031586;28;20437;-72
2023/06/17 11:49:43;;;;;;;1.23;1.23;;;32.40;81.10;;;;;;5033319;28;20997;-72
2023/06/17 11:52:16;;;;;;;5.90;1.63;;;32.30;77.80;;;;;;5032585;28;20453;-72
2023/06/17 11:54:49;;;;;;;1.48;1.20;;;32.40;80.00;;;;;;5032535;28;20429;-74
2023/06/17 11:57:18;;;;;;;1.20;1.10;;;32.10;76.80;;;;;;5032050;28;20451;-74
2023/06/17 11:59:47;;;;;;;1.60;1.50;;;32.20;77.10;;;;;;5033231;28;20425;-72
2023/06/17 12:02:17;;;;;;;1.48;1.38;;;31.90;76.50;;;;;;5062867;28;20448;-72
2023/06/17 12:04:47;;;;;;;1.30;1.20;;;32.00;76.90;;;;;;5032360;28;20425;-73
2023/06/17 12:07:14;;;;;;;1.15;1.15;;;32.70;80.60;;;;;;5030003;28;20441;-72
2023/06/17 12:09:54;;;;;;;1.48;1.20;;;33.30;84.20;;;;;;5038124;28;20433;-73
2023/06/17 12:12:29;;;;;;;2.10;1.30;;;33.50;83.50;;;;;;5041734;28;20573;-73
2023/06/17 12:15:07;;;;;;;1.60;1.50;;;33.70;84.60;;;;;;5039779;28;20603;-73
2023/06/17 12:17:46;;;;;;;1.20;1.20;;;34.10;87.50;;;;;;5034997;28;20905;-72
2023/06/17 12:20:20;;;;;;;1.90;1.17;;;34.40;88.40;;;;;;5040013;28;20512;-72
2023/06/17 12:22:49;;;;;;;1.30;1.30;;;34.40;88.90;;;;;;5040901;28;20790;-73
2023/06/17 12:25:17;;;;;;;1.27;1.17;;;34.20;88.40;;;;;;5037437;28;20421;-72
2023/06/17 12:27:47;;;;;;;2.13;1.40;;;33.50;82.70;;;;;;5069455;28;20425;-73
2023/06/17 12:30:14;;;;;;;1.42;1.33;;;33.40;82.20;;;;;;5037858;28;20449;-72
2023/06/17 12:32:45;;;;;;;2.40;1.30;;;32.90;79.80;;;;;;5038643;28;20808;-72
2023/06/17 12:35:14;;;;;;;1.30;1.30;;;32.30;76.10;;;;;;5039118;28;20433;-72
2023/06/17 12:37:43;;;;;;;1.50;1.23;;;31.90;75.50;;;;;;5037484;28;20490;-72
2023/06/17 12:40:13;;;;;;;1.20;1.20;;;32.40;77.00;;;;;;5035069;28;20800;-73
2023/06/17 12:42:40;;;;;;;1.08;1.08;;;32.80;79.00;;;;;;5039058;28;20461;-72
2023/06/17 12:45:07;;;;;;;1.40;1.30;;;33.10;81.90;;;;;;5039676;28;20958;-72
2023/06/17 12:47:37;;;;;;;1.42;1.33;;;33.50;83.80;;;;;;5036916;28;20431;-72
2023/06/17 12:50:06;;;;;;;1.50;1.40;;;33.90;85.40;;;;;;5036445;28;20437;-72
2023/06/17 12:52:36;;;;;;;1.20;1.10;;;33.90;85.30;;;;;;5038442;28;20471;-73
2023/06/17 12:55:04;;;;;;;1.10;1.10;;;34.10;85.70;;;;;;5041040;28;20465;-73